createdAt,value
2018-08-10T04:00:28.365Z,0.00
2018-08-10T04:01:28.325Z,0.00
2018-08-10T04:02:28.323Z,0.00
2018-08-10T04:03:28.312Z,0.00
2018-08-10T04:04:28.285Z,0.00
2018-08-10T04:05:28.282Z,0.00
2018-08-10T04:06:28.299Z,0.00
2018-08-10T04:07:28.277Z,0.00
2018-08-10T04:08:28.245Z,0.00
2018-08-10T04:09:28.236Z,0.00
2018-08-10T04:10:28.234Z,0.00
2018-08-10T04:11:28.211Z,0.00
2018-08-10T04:12:28.209Z,0.00
2018-08-10T04:13:28.209Z,0.00
2018-08-10T04:14:28.209Z,0.00
2018-08-10T04:15:28.177Z,0.00
2018-08-10T04:16:28.166Z,0.00
2018-08-10T04:17:28.143Z,0.00
2018-08-10T04:18:28.161Z,0.00
2018-08-10T04:19:28.121Z,0.00
2018-08-10T04:20:28.108Z,0.00
2018-08-10T04:21:28.104Z,0.00
2018-08-10T04:22:28.084Z,0.00
2018-08-10T04:23:28.095Z,0.00
2018-08-10T04:24:28.065Z,0.00
2018-08-10T04:25:28.059Z,0.00
2018-08-10T04:26:28.046Z,0.00
2018-08-10T04:27:28.031Z,0.00
2018-08-10T04:28:28.042Z,0.00
2018-08-10T04:29:28.070Z,0.00
2018-08-10T04:30:28.009Z,0.00
2018-08-10T04:31:27.983Z,0.00
2018-08-10T04:32:27.978Z,0.00
2018-08-10T04:33:27.990Z,0.00
2018-08-10T04:34:27.971Z,5.62
2018-08-10T04:35:27.953Z,5.62
2018-08-10T04:36:27.938Z,5.62
2018-08-10T04:37:27.916Z,5.62
2018-08-10T04:38:27.931Z,5.62
2018-08-10T04:39:27.899Z,5.62
2018-08-10T04:40:27.913Z,5.62
2018-08-10T04:41:27.871Z,5.62
2018-08-10T04:42:27.860Z,5.62
2018-08-10T04:43:27.868Z,5.62
2018-08-10T04:44:27.843Z,5.62
2018-08-10T04:45:27.837Z,5.62
2018-08-10T04:46:27.823Z,5.62
2018-08-10T04:47:27.808Z,5.62
2018-08-10T04:48:27.817Z,5.62
2018-08-10T04:49:27.794Z,5.62
2018-08-10T04:50:27.775Z,5.62
2018-08-10T04:51:27.782Z,5.62
2018-08-10T04:52:27.750Z,5.62
2018-08-10T04:53:27.781Z,5.62
2018-08-10T04:54:27.730Z,5.62
2018-08-10T04:55:27.754Z,5.62
2018-08-10T04:56:27.718Z,5.62
2018-08-10T04:57:27.715Z,5.62
2018-08-10T04:58:27.707Z,5.62
2018-08-10T04:59:27.679Z,11.25
2018-08-10T05:00:27.660Z,11.25
2018-08-10T05:01:27.658Z,5.62
2018-08-10T05:02:27.642Z,5.62
2018-08-10T05:03:27.656Z,11.25
2018-08-10T05:04:27.637Z,11.25
2018-08-10T05:05:27.628Z,11.25
2018-08-10T05:06:27.594Z,5.62
2018-08-10T05:07:27.588Z,11.25
2018-08-10T05:08:27.607Z,16.88
2018-08-10T05:09:27.568Z,16.88
2018-08-10T05:10:27.548Z,16.88
2018-08-10T05:11:27.545Z,16.88
2018-08-10T05:12:27.535Z,16.88
2018-08-10T05:13:27.524Z,16.88
2018-08-10T05:14:27.513Z,16.88
2018-08-10T05:15:27.498Z,16.88
2018-08-10T05:16:27.486Z,16.88
2018-08-10T05:17:27.470Z,11.25
2018-08-10T05:18:27.476Z,11.25
2018-08-10T05:19:27.455Z,16.88
2018-08-10T05:20:27.442Z,16.88
2018-08-10T05:21:27.429Z,16.88
2018-08-10T05:22:27.418Z,22.50
2018-08-10T05:23:27.414Z,22.50
2018-08-10T05:24:27.391Z,22.50
2018-08-10T05:25:27.384Z,22.50
2018-08-10T05:26:27.370Z,22.50
2018-08-10T05:27:27.359Z,28.12
2018-08-10T05:28:27.369Z,33.75
2018-08-10T05:29:27.352Z,33.75
2018-08-10T05:30:27.326Z,39.38
2018-08-10T05:31:27.316Z,39.38
2018-08-10T05:32:27.306Z,39.38
2018-08-10T05:33:27.303Z,39.38
2018-08-10T05:34:27.284Z,39.38
2018-08-10T05:35:27.273Z,39.38
2018-08-10T05:36:27.261Z,39.38
2018-08-10T05:37:27.246Z,39.38
2018-08-10T05:38:27.251Z,39.38
2018-08-10T05:39:27.225Z,39.38
2018-08-10T05:40:27.217Z,39.38
2018-08-10T05:41:27.248Z,33.75
2018-08-10T05:42:27.194Z,39.38
2018-08-10T05:43:27.201Z,33.75
2018-08-10T05:44:27.170Z,33.75
2018-08-10T05:45:27.163Z,33.75
2018-08-10T05:46:27.227Z,33.75
2018-08-10T05:47:27.138Z,33.75
2018-08-10T05:48:27.150Z,33.75
2018-08-10T05:49:27.115Z,33.75
2018-08-10T05:50:27.107Z,33.75
2018-08-10T05:51:27.092Z,33.75
2018-08-10T05:52:27.145Z,33.75
2018-08-10T05:53:27.082Z,33.75
2018-08-10T05:54:27.065Z,33.75
2018-08-10T05:55:27.048Z,33.75
2018-08-10T05:56:27.035Z,33.75
2018-08-10T05:57:27.077Z,33.75
2018-08-10T05:58:27.025Z,33.75
2018-08-10T05:59:27.003Z,39.38
2018-08-10T06:00:26.992Z,39.38
2018-08-10T06:01:26.983Z,39.38
2018-08-10T06:02:26.968Z,39.38
2018-08-10T06:03:26.993Z,39.38
2018-08-10T06:04:26.950Z,39.38
2018-08-10T06:05:26.935Z,39.38
2018-08-10T06:06:26.930Z,39.38
2018-08-10T06:07:26.918Z,39.38
2018-08-10T06:08:26.922Z,45.00
2018-08-10T06:09:26.896Z,45.00
2018-08-10T06:10:26.911Z,45.00
2018-08-10T06:11:26.872Z,45.00
2018-08-10T06:12:26.857Z,39.38
2018-08-10T06:13:26.850Z,33.75
2018-08-10T06:14:26.846Z,28.12
2018-08-10T06:15:26.863Z,28.12
2018-08-10T06:16:26.813Z,28.12
2018-08-10T06:17:26.802Z,22.50
2018-08-10T06:18:26.797Z,28.12
2018-08-10T06:19:26.855Z,28.12
2018-08-10T06:20:26.768Z,22.50
2018-08-10T06:21:26.759Z,22.50
2018-08-10T06:22:26.769Z,22.50
2018-08-10T06:23:26.734Z,28.12
2018-08-10T06:24:26.738Z,22.50
2018-08-10T06:25:26.715Z,28.12
2018-08-10T06:26:26.703Z,28.12
2018-08-10T06:27:26.691Z,39.38
2018-08-10T06:28:26.683Z,39.38
2018-08-10T06:29:26.719Z,39.38
2018-08-10T06:30:26.657Z,39.38
2018-08-10T06:31:26.646Z,39.38
2018-08-10T06:32:26.636Z,39.38
2018-08-10T06:33:26.623Z,45.00
2018-08-10T06:34:26.622Z,50.62
2018-08-10T06:35:26.608Z,56.25
2018-08-10T06:36:26.589Z,56.25
2018-08-10T06:37:26.581Z,56.25
2018-08-10T06:38:26.575Z,61.88
2018-08-10T06:39:26.567Z,61.88
2018-08-10T06:40:26.546Z,61.88
2018-08-10T06:41:26.539Z,67.50
2018-08-10T06:42:26.532Z,67.50
2018-08-10T06:43:26.513Z,90.00
2018-08-10T06:44:26.514Z,67.50
2018-08-10T06:45:26.493Z,56.25
2018-08-10T06:46:26.510Z,50.62
2018-08-10T06:47:26.471Z,45.00
2018-08-10T06:48:26.472Z,39.38
2018-08-10T06:49:26.458Z,39.38
2018-08-10T06:50:26.436Z,39.38
2018-08-10T06:51:26.426Z,45.00
2018-08-10T06:52:26.461Z,50.62
2018-08-10T06:53:26.401Z,56.25
2018-08-10T06:54:26.407Z,67.50
2018-08-10T06:55:26.384Z,67.50
2018-08-10T06:56:26.371Z,73.12
2018-08-10T06:57:26.360Z,78.75
2018-08-10T06:58:26.347Z,84.38
2018-08-10T06:59:26.349Z,95.62
2018-08-10T07:00:26.363Z,129.38
2018-08-10T07:01:26.360Z,151.88
2018-08-10T07:02:26.306Z,151.88
2018-08-10T07:03:26.297Z,202.50
2018-08-10T07:04:26.292Z,208.12
2018-08-10T07:05:26.268Z,219.38
2018-08-10T07:06:26.256Z,270.00
2018-08-10T07:07:26.263Z,185.62
2018-08-10T07:08:26.235Z,326.25
2018-08-10T07:09:26.233Z,146.25
2018-08-10T07:10:26.211Z,185.62
2018-08-10T07:11:26.215Z,135.00
2018-08-10T07:12:26.194Z,157.50
2018-08-10T07:13:26.183Z,180.00
2018-08-10T07:14:26.189Z,185.62
2018-08-10T07:15:26.157Z,230.62
2018-08-10T07:16:26.144Z,174.38
2018-08-10T07:17:26.138Z,146.25
2018-08-10T07:18:26.126Z,118.12
2018-08-10T07:19:26.124Z,118.12
2018-08-10T07:20:26.101Z,106.88
2018-08-10T07:21:26.095Z,118.12
2018-08-10T07:22:26.078Z,95.62
2018-08-10T07:23:26.072Z,101.25
2018-08-10T07:24:26.068Z,101.25
2018-08-10T07:25:26.048Z,106.88
2018-08-10T07:26:26.038Z,106.88
2018-08-10T07:27:26.023Z,106.88
2018-08-10T07:28:26.012Z,106.88
2018-08-10T07:29:26.015Z,101.25
2018-08-10T07:30:25.991Z,101.25
2018-08-10T07:31:25.979Z,106.88
2018-08-10T07:32:25.972Z,112.50
2018-08-10T07:33:25.959Z,123.75
2018-08-10T07:34:26.016Z,185.62
2018-08-10T07:35:25.934Z,202.50
2018-08-10T07:36:25.922Z,230.62
2018-08-10T07:37:25.921Z,320.62
2018-08-10T07:38:25.906Z,196.88
2018-08-10T07:39:25.904Z,180.00
2018-08-10T07:40:25.880Z,174.38
2018-08-10T07:41:25.867Z,151.88
2018-08-10T07:42:25.859Z,185.62
2018-08-10T07:43:25.846Z,163.12
2018-08-10T07:44:25.843Z,196.88
2018-08-10T07:45:25.826Z,208.12
2018-08-10T07:46:25.872Z,241.88
2018-08-10T07:47:25.831Z,163.12
2018-08-10T07:48:25.790Z,123.75
2018-08-10T07:49:25.796Z,225.00
2018-08-10T07:50:25.777Z,236.25
2018-08-10T07:51:25.761Z,421.88
2018-08-10T07:52:25.754Z,315.00
2018-08-10T07:53:25.734Z,421.88
2018-08-10T07:54:25.739Z,399.38
2018-08-10T07:55:25.718Z,360.00
2018-08-10T07:56:25.705Z,405.00
2018-08-10T07:57:25.693Z,388.12
2018-08-10T07:58:25.686Z,388.12
2018-08-10T07:59:25.688Z,365.62
2018-08-10T08:00:25.662Z,376.88
2018-08-10T08:01:25.647Z,382.50
2018-08-10T08:02:25.634Z,393.75
2018-08-10T08:03:25.624Z,405.00
2018-08-10T08:04:25.628Z,382.50
2018-08-10T08:05:25.605Z,416.25
2018-08-10T08:06:25.662Z,427.50
2018-08-10T08:07:25.580Z,438.75
2018-08-10T08:08:25.577Z,416.25
2018-08-10T08:09:25.577Z,343.12
2018-08-10T08:10:25.558Z,450.00
2018-08-10T08:11:25.538Z,450.00
2018-08-10T08:12:25.524Z,410.62
2018-08-10T08:13:25.514Z,393.75
2018-08-10T08:14:25.626Z,331.88
2018-08-10T08:15:25.496Z,315.00
2018-08-10T08:16:25.486Z,281.25
2018-08-10T08:17:25.471Z,399.38
2018-08-10T08:18:25.460Z,489.38
2018-08-10T08:19:25.503Z,455.62
2018-08-10T08:20:25.447Z,461.25
2018-08-10T08:21:25.427Z,427.50
2018-08-10T08:22:25.483Z,405.00
2018-08-10T08:23:25.406Z,376.88
2018-08-10T08:24:25.395Z,365.62
2018-08-10T08:25:25.392Z,461.25
2018-08-10T08:26:25.371Z,511.88
2018-08-10T08:27:25.360Z,478.12
2018-08-10T08:28:25.351Z,489.38
2018-08-10T08:29:25.342Z,511.88
2018-08-10T08:30:25.341Z,151.88
2018-08-10T08:31:25.316Z,540.00
2018-08-10T08:32:25.307Z,118.12
2018-08-10T08:33:25.296Z,129.38
2018-08-10T08:34:25.290Z,270.00
2018-08-10T08:35:25.284Z,545.62
2018-08-10T08:36:25.261Z,129.38
2018-08-10T08:37:25.251Z,540.00
2018-08-10T08:38:25.312Z,348.75
2018-08-10T08:39:25.239Z,343.12
2018-08-10T08:40:25.227Z,562.50
2018-08-10T08:41:25.213Z,140.62
2018-08-10T08:42:25.196Z,331.88
2018-08-10T08:43:25.188Z,129.38
2018-08-10T08:44:25.175Z,579.38
2018-08-10T08:45:25.194Z,140.62
2018-08-10T08:46:25.494Z,129.38
2018-08-10T08:47:25.174Z,618.75
2018-08-10T08:48:25.166Z,163.12
2018-08-10T08:49:25.138Z,123.75
2018-08-10T08:50:25.122Z,725.62
2018-08-10T08:51:25.097Z,888.75
2018-08-10T08:52:25.087Z,1153.12
2018-08-10T08:53:25.078Z,1192.50
2018-08-10T08:54:25.064Z,759.38
2018-08-10T08:55:25.065Z,202.50
2018-08-10T08:56:25.042Z,1153.12
2018-08-10T08:57:25.037Z,950.62
2018-08-10T08:58:25.021Z,1096.88
2018-08-10T08:59:25.060Z,1125.00
2018-08-10T09:00:25.011Z,1130.62
2018-08-10T09:01:24.990Z,832.50
2018-08-10T09:02:24.985Z,1186.88
2018-08-10T09:03:24.967Z,1254.38
2018-08-10T09:04:24.956Z,911.25
2018-08-10T09:05:24.952Z,703.12
2018-08-10T09:06:24.932Z,579.38
2018-08-10T09:07:25.013Z,573.75
2018-08-10T09:08:24.912Z,579.38
2018-08-10T09:09:24.901Z,528.75
2018-08-10T09:10:24.977Z,573.75
2018-08-10T09:11:24.884Z,585.00
2018-08-10T09:12:24.867Z,585.00
2018-08-10T09:13:24.862Z,585.00
2018-08-10T09:14:24.890Z,601.88
2018-08-10T09:15:24.844Z,607.50
2018-08-10T09:16:24.820Z,630.00
2018-08-10T09:17:24.868Z,630.00
2018-08-10T09:18:24.804Z,686.25
2018-08-10T09:19:24.790Z,630.00
2018-08-10T09:20:24.789Z,596.25
2018-08-10T09:21:24.774Z,652.50
2018-08-10T09:22:24.760Z,708.75
2018-08-10T09:23:24.804Z,444.38
2018-08-10T09:24:24.733Z,680.62
2018-08-10T09:25:24.734Z,821.25
2018-08-10T09:26:24.760Z,1113.75
2018-08-10T09:27:24.703Z,720.00
2018-08-10T09:28:24.692Z,624.38
2018-08-10T09:29:24.680Z,607.50
2018-08-10T09:30:24.681Z,579.38
2018-08-10T09:31:24.661Z,568.12
2018-08-10T09:32:24.657Z,545.62
2018-08-10T09:33:24.640Z,528.75
2018-08-10T09:34:24.636Z,545.62
2018-08-10T09:35:24.628Z,579.38
2018-08-10T09:36:24.604Z,534.38
2018-08-10T09:37:24.595Z,185.62
2018-08-10T09:38:24.630Z,523.12
2018-08-10T09:39:24.573Z,523.12
2018-08-10T09:40:24.571Z,523.12
2018-08-10T09:41:24.554Z,466.88
2018-08-10T09:42:24.536Z,208.12
2018-08-10T09:43:24.526Z,253.12
2018-08-10T09:44:24.513Z,551.25
2018-08-10T09:45:24.533Z,680.62
2018-08-10T09:46:24.492Z,540.00
2018-08-10T09:47:24.483Z,320.62
2018-08-10T09:48:24.478Z,652.50
2018-08-10T09:49:24.463Z,646.88
2018-08-10T09:50:24.461Z,956.25
2018-08-10T09:51:24.437Z,2238.75
2018-08-10T09:52:24.440Z,3673.12
2018-08-10T09:53:24.418Z,2896.88
2018-08-10T09:54:24.418Z,748.12
2018-08-10T09:55:24.406Z,3825.00
2018-08-10T09:56:24.385Z,3825.00
2018-08-10T09:57:24.371Z,3791.25
2018-08-10T09:58:24.361Z,3436.88
2018-08-10T09:59:24.353Z,3285.00
2018-08-10T10:00:24.348Z,3746.25
2018-08-10T10:01:24.327Z,3712.50
2018-08-10T10:02:24.317Z,3633.75
2018-08-10T10:03:24.317Z,1957.50
2018-08-10T10:04:24.296Z,286.88
2018-08-10T10:05:24.315Z,180.00
2018-08-10T10:06:24.273Z,157.50
2018-08-10T10:07:24.270Z,163.12
2018-08-10T10:08:24.252Z,151.88
2018-08-10T10:09:24.240Z,135.00
2018-08-10T10:10:24.244Z,129.38
2018-08-10T10:11:24.221Z,123.75
2018-08-10T10:12:24.209Z,112.50
2018-08-10T10:13:24.213Z,112.50
2018-08-10T10:14:24.190Z,101.25
2018-08-10T10:15:24.191Z,90.00
2018-08-10T10:16:24.184Z,112.50
2018-08-10T10:17:24.205Z,106.88
2018-08-10T10:18:24.143Z,95.62
2018-08-10T10:19:24.136Z,84.38
2018-08-10T10:20:24.152Z,84.38
2018-08-10T10:21:24.110Z,78.75
2018-08-10T10:22:24.096Z,106.88
2018-08-10T10:23:24.088Z,101.25
2018-08-10T10:24:24.074Z,84.38
2018-08-10T10:25:24.065Z,84.38
2018-08-10T10:26:24.063Z,78.75
2018-08-10T10:27:24.045Z,78.75
2018-08-10T10:28:24.031Z,73.12
2018-08-10T10:29:24.022Z,73.12
2018-08-10T10:30:24.011Z,78.75
2018-08-10T10:31:24.016Z,73.12
2018-08-10T10:32:23.989Z,67.50
2018-08-10T10:33:23.977Z,61.88
2018-08-10T10:34:23.981Z,67.50
2018-08-10T10:35:23.953Z,61.88
2018-08-10T10:36:23.963Z,56.25
2018-08-10T10:37:23.937Z,61.88
2018-08-10T10:38:23.921Z,61.88
2018-08-10T10:39:23.913Z,56.25
2018-08-10T10:40:23.904Z,61.88
2018-08-10T10:41:23.928Z,67.50
2018-08-10T10:42:23.879Z,67.50
2018-08-10T10:43:23.870Z,73.12
2018-08-10T10:44:23.860Z,73.12
2018-08-10T10:45:23.845Z,73.12
2018-08-10T10:46:23.847Z,67.50
2018-08-10T10:47:23.838Z,61.88
2018-08-10T10:48:23.813Z,67.50
2018-08-10T10:49:23.801Z,73.12
2018-08-10T10:50:23.792Z,73.12
2018-08-10T10:51:23.788Z,73.12
2018-08-10T10:52:23.771Z,73.12
2018-08-10T10:53:23.761Z,73.12
2018-08-10T10:54:23.747Z,73.12
2018-08-10T10:55:23.769Z,67.50
2018-08-10T10:56:23.744Z,61.88
2018-08-10T10:57:23.717Z,61.88
2018-08-10T10:58:23.704Z,56.25
2018-08-10T10:59:23.692Z,56.25
2018-08-10T11:00:23.683Z,56.25
2018-08-10T11:01:23.680Z,56.25
2018-08-10T11:02:23.660Z,56.25
2018-08-10T11:03:23.647Z,61.88
2018-08-10T11:04:23.636Z,56.25
2018-08-10T11:05:23.628Z,61.88
2018-08-10T11:06:23.706Z,56.25
2018-08-10T11:07:23.604Z,56.25
2018-08-10T11:08:23.597Z,56.25
2018-08-10T11:09:23.584Z,56.25
2018-08-10T11:10:23.573Z,56.25
2018-08-10T11:11:23.569Z,56.25
2018-08-10T11:12:23.549Z,78.75
2018-08-10T11:13:23.537Z,73.12
2018-08-10T11:14:23.527Z,73.12
2018-08-10T11:15:23.520Z,61.88
2018-08-10T11:16:23.515Z,56.25
2018-08-10T11:17:23.497Z,67.50
2018-08-10T11:18:23.490Z,84.38
2018-08-10T11:19:23.473Z,95.62
2018-08-10T11:20:23.461Z,90.00
2018-08-10T11:21:23.467Z,84.38
2018-08-10T11:22:23.441Z,67.50
2018-08-10T11:23:23.430Z,61.88
2018-08-10T11:24:23.417Z,67.50
2018-08-10T11:25:23.526Z,73.12
2018-08-10T11:26:23.408Z,78.75
2018-08-10T11:27:23.386Z,67.50
2018-08-10T11:28:23.379Z,61.88
2018-08-10T11:29:23.361Z,61.88
2018-08-10T11:30:23.385Z,56.25
2018-08-10T11:31:23.352Z,61.88
2018-08-10T11:32:23.390Z,67.50
2018-08-10T11:33:23.322Z,73.12
2018-08-10T11:34:23.311Z,67.50
2018-08-10T11:35:23.298Z,67.50
2018-08-10T11:36:23.305Z,67.50
2018-08-10T11:37:23.276Z,61.88
2018-08-10T11:38:23.264Z,61.88
2018-08-10T11:39:23.253Z,67.50
2018-08-10T11:40:23.240Z,56.25
2018-08-10T11:41:23.247Z,50.62
2018-08-10T11:42:23.219Z,56.25
2018-08-10T11:43:23.210Z,50.62
2018-08-10T11:44:23.211Z,56.25
2018-08-10T11:45:23.187Z,50.62
2018-08-10T11:46:23.188Z,50.62
2018-08-10T11:47:23.171Z,50.62
2018-08-10T11:48:23.157Z,56.25
2018-08-10T11:49:23.149Z,61.88
2018-08-10T11:50:23.134Z,67.50
2018-08-10T11:51:23.133Z,73.12
2018-08-10T11:52:23.117Z,78.75
2018-08-10T11:53:23.101Z,78.75
2018-08-10T11:54:23.093Z,78.75
2018-08-10T11:55:23.080Z,84.38
2018-08-10T11:56:23.089Z,78.75
2018-08-10T11:57:23.073Z,73.12
2018-08-10T11:58:23.046Z,78.75
2018-08-10T11:59:23.035Z,90.00
2018-08-10T12:00:23.049Z,84.38
2018-08-10T12:01:23.024Z,101.25
2018-08-10T12:02:23.004Z,95.62
2018-08-10T12:03:22.991Z,78.75
2018-08-10T12:04:22.979Z,78.75
2018-08-10T12:05:22.970Z,67.50
2018-08-10T12:06:22.968Z,61.88
2018-08-10T12:07:22.949Z,73.12
2018-08-10T12:08:22.935Z,78.75
2018-08-10T12:09:22.925Z,84.38
2018-08-10T12:10:22.915Z,84.38
2018-08-10T12:11:22.913Z,78.75
2018-08-10T12:12:22.894Z,73.12
2018-08-10T12:13:22.881Z,73.12
2018-08-10T12:14:22.869Z,67.50
2018-08-10T12:15:22.863Z,67.50
2018-08-10T12:16:22.856Z,45.00
2018-08-10T12:17:22.836Z,50.62
